Terminal Aerodrome Forecast
Issued by NWS

Home | Current Version | Previous Version | Text Only | Print | Product List | Glossary On
Versions: 1 2 3 4 5 6 7 8 9 10 11 12 13
633
FTUS46 KSGX 182339
TAFSNA
TAF
KSNA 182339Z 1900/1924 21011KT P6SM SCT025
     FM190400 21007KT P6SM BKN025
     FM190600 18007KT P6SM -SHRA BKN025
     FM190900 20010G18KT P6SM VCSH SCT025 BKN035
     FM191500 23012G20KT P6SM SCT035=

USA.gov is the U.S. government's official web portal to all federal, state and local government web resources and services.